createdAt,value
2017-03-27T00:00:52.916Z,0
2017-03-27T00:01:53.446Z,0
2017-03-27T00:02:53.982Z,0
2017-03-27T00:03:54.511Z,0
2017-03-27T00:04:55.045Z,0
2017-03-27T00:05:55.585Z,0
2017-03-27T00:06:56.111Z,0
2017-03-27T00:07:56.636Z,0
2017-03-27T00:08:57.173Z,0
2017-03-27T00:09:57.706Z,0
2017-03-27T00:10:58.236Z,0
2017-03-27T00:11:58.766Z,0
2017-03-27T00:12:59.302Z,0
2017-03-27T00:13:59.860Z,0
2017-03-27T00:15:00.372Z,0
2017-03-27T00:16:00.902Z,0
2017-03-27T00:17:01.436Z,0
2017-03-27T00:18:01.990Z,0
2017-03-27T00:19:02.501Z,0
2017-03-27T00:20:03.031Z,0
2017-03-27T00:21:03.568Z,0
2017-03-27T00:22:04.097Z,0
2017-03-27T00:23:04.636Z,0
2017-03-27T00:24:05.319Z,0
2017-03-27T00:25:05.700Z,0
2017-03-27T00:26:06.230Z,0
2017-03-27T00:27:06.907Z,0
2017-03-27T00:28:07.294Z,0
2017-03-27T00:29:07.832Z,0
2017-03-27T00:30:08.361Z,0
2017-03-27T00:31:08.899Z,0
2017-03-27T00:32:09.432Z,0
2017-03-27T00:33:09.969Z,0
2017-03-27T00:34:10.502Z,0
2017-03-27T00:35:11.038Z,0
2017-03-27T00:36:11.577Z,0
2017-03-27T00:37:12.252Z,0
2017-03-27T00:38:12.641Z,0
2017-03-27T00:39:13.182Z,0
2017-03-27T00:40:13.715Z,0
2017-03-27T00:41:14.395Z,0
2017-03-27T00:42:14.783Z,0
2017-03-27T00:43:15.308Z,0
2017-03-27T00:44:15.835Z,0
2017-03-27T00:45:16.370Z,0
2017-03-27T00:46:16.916Z,0
2017-03-27T00:47:17.461Z,0
2017-03-27T00:48:17.974Z,0
2017-03-27T00:49:18.504Z,0
2017-03-27T00:50:19.040Z,0
2017-03-27T00:51:19.570Z,0
2017-03-27T00:52:20.255Z,0
2017-03-27T00:53:20.634Z,0
2017-03-27T00:54:21.171Z,0
2017-03-27T00:55:21.846Z,0
2017-03-27T00:56:22.241Z,0
2017-03-27T00:57:22.766Z,0
2017-03-27T00:58:23.296Z,0
2017-03-27T00:59:23.837Z,0
2017-03-27T01:00:24.361Z,0
2017-03-27T01:01:24.893Z,0
2017-03-27T01:02:25.435Z,0
2017-03-27T01:03:25.961Z,0
2017-03-27T01:04:26.491Z,0
2017-03-27T01:05:27.024Z,0
2017-03-27T01:06:27.558Z,0
2017-03-27T01:07:28.093Z,0
2017-03-27T01:08:28.628Z,0
2017-03-27T01:09:29.156Z,0
2017-03-27T01:10:29.687Z,0
2017-03-27T01:11:30.218Z,0
2017-03-27T01:12:30.759Z,0
2017-03-27T01:13:31.284Z,0
2017-03-27T01:14:31.971Z,0
2017-03-27T01:15:32.349Z,0
2017-03-27T01:16:32.881Z,0
2017-03-27T01:17:33.416Z,0
2017-03-27T01:18:33.952Z,0
2017-03-27T01:19:34.488Z,0
2017-03-27T01:20:35.180Z,0
2017-03-27T01:21:35.565Z,0
2017-03-27T01:22:36.100Z,0
2017-03-27T01:23:36.638Z,0
2017-03-27T01:24:37.320Z,0
2017-03-27T01:25:37.705Z,0
2017-03-27T01:26:38.235Z,0
2017-03-27T01:27:38.772Z,0
2017-03-27T01:28:39.305Z,0
2017-03-27T01:29:39.841Z,0
2017-03-27T01:30:40.370Z,0
2017-03-27T01:31:40.899Z,0
2017-03-27T01:32:41.441Z,0
2017-03-27T01:33:42.107Z,0
2017-03-27T01:34:42.700Z,0
2017-03-27T01:35:43.025Z,0
2017-03-27T01:36:43.559Z,0
2017-03-27T01:37:44.096Z,0
2017-03-27T01:38:44.626Z,0
2017-03-27T01:39:45.160Z,0
2017-03-27T01:40:45.689Z,0
2017-03-27T01:41:46.229Z,0
2017-03-27T01:42:46.761Z,0
2017-03-27T01:43:47.316Z,0
2017-03-27T01:44:47.826Z,0
2017-03-27T01:45:48.365Z,0
2017-03-27T01:46:48.901Z,0
2017-03-27T01:47:49.427Z,0
2017-03-27T01:48:49.958Z,0
2017-03-27T01:49:50.504Z,0
2017-03-27T01:50:51.024Z,0
2017-03-27T01:51:51.555Z,0
2017-03-27T01:52:52.087Z,0
2017-03-27T01:53:52.621Z,0
2017-03-27T01:54:53.151Z,0
2017-03-27T01:55:53.683Z,0
2017-03-27T01:56:54.211Z,0
2017-03-27T01:57:54.748Z,0
2017-03-27T01:58:55.277Z,0
2017-03-27T01:59:55.815Z,0
2017-03-27T02:00:56.350Z,0
2017-03-27T02:01:56.887Z,0
2017-03-27T02:02:57.421Z,0
2017-03-27T02:03:57.962Z,0
2017-03-27T02:04:58.648Z,0
2017-03-27T02:05:59.039Z,0
2017-03-27T02:06:59.576Z,0
2017-03-27T02:08:00.095Z,0
2017-03-27T02:09:00.625Z,0
2017-03-27T02:10:01.156Z,0
2017-03-27T02:11:01.699Z,0
2017-03-27T02:12:02.223Z,0
2017-03-27T02:13:02.754Z,0
2017-03-27T02:14:03.289Z,0
2017-03-27T02:15:03.816Z,0
2017-03-27T02:16:04.352Z,0
2017-03-27T02:17:04.888Z,0
2017-03-27T02:18:05.416Z,0
2017-03-27T02:19:05.965Z,0
2017-03-27T02:20:06.485Z,0
2017-03-27T02:21:07.018Z,0
2017-03-27T02:22:07.556Z,0
2017-03-27T02:23:08.083Z,0
2017-03-27T02:24:08.616Z,0
2017-03-27T02:25:09.155Z,0
2017-03-27T02:26:09.680Z,0
2017-03-27T02:27:10.216Z,0
2017-03-27T02:28:10.750Z,0
2017-03-27T02:29:11.433Z,0
2017-03-27T02:30:11.813Z,0
2017-03-27T02:31:12.344Z,0
2017-03-27T02:32:12.879Z,0
2017-03-27T02:33:13.408Z,0
2017-03-27T02:34:13.939Z,0
2017-03-27T02:35:14.474Z,0
2017-03-27T02:36:15.008Z,0
2017-03-27T02:37:15.539Z,0
2017-03-27T02:38:16.078Z,0
2017-03-27T02:39:16.604Z,0
2017-03-27T02:40:17.163Z,0
2017-03-27T02:41:17.823Z,0
2017-03-27T02:42:18.221Z,0
2017-03-27T02:43:18.743Z,0
2017-03-27T02:44:19.285Z,0
2017-03-27T02:45:19.819Z,0
2017-03-27T02:46:20.354Z,0
2017-03-27T02:47:20.882Z,0
2017-03-27T02:48:21.416Z,0
2017-03-27T02:49:21.957Z,0
2017-03-27T02:50:22.478Z,0
2017-03-27T02:51:23.013Z,0
2017-03-27T02:52:23.548Z,0
2017-03-27T02:53:24.081Z,0
2017-03-27T02:54:24.612Z,0
2017-03-27T02:55:25.151Z,0
2017-03-27T02:56:25.681Z,0
2017-03-27T02:57:26.359Z,0
2017-03-27T02:58:26.741Z,0
2017-03-27T02:59:27.273Z,0
2017-03-27T03:00:27.801Z,0
2017-03-27T03:01:28.491Z,0
2017-03-27T03:02:28.869Z,0
2017-03-27T03:03:29.413Z,0
2017-03-27T03:04:29.935Z,0
2017-03-27T03:05:30.468Z,0
2017-03-27T03:06:30.999Z,0
2017-03-27T03:07:31.544Z,0
2017-03-27T03:08:32.074Z,0
2017-03-27T03:09:32.602Z,0
2017-03-27T03:10:33.135Z,0
2017-03-27T03:11:33.680Z,0
2017-03-27T03:12:34.205Z,0
2017-03-27T03:13:34.742Z,0
2017-03-27T03:14:35.271Z,0
2017-03-27T03:15:35.954Z,0
2017-03-27T03:16:36.339Z,0
2017-03-27T03:17:37.018Z,0
2017-03-27T03:18:37.549Z,0
2017-03-27T03:19:37.938Z,0
2017-03-27T03:20:38.469Z,0
2017-03-27T03:21:38.999Z,0
2017-03-27T03:22:39.532Z,0
2017-03-27T03:23:40.067Z,0
2017-03-27T03:24:40.600Z,0
2017-03-27T03:25:41.138Z,0
2017-03-27T03:26:41.672Z,0
2017-03-27T03:27:42.215Z,0
2017-03-27T03:28:42.747Z,0
2017-03-27T03:29:43.276Z,0
2017-03-27T03:30:43.811Z,0
2017-03-27T03:31:44.348Z,0
2017-03-27T03:32:44.873Z,0
2017-03-27T03:33:45.405Z,0
2017-03-27T03:34:45.940Z,0
2017-03-27T03:35:46.467Z,0
2017-03-27T03:36:47.004Z,0
2017-03-27T03:37:47.544Z,0
2017-03-27T03:38:48.065Z,0
2017-03-27T03:39:48.596Z,0
2017-03-27T03:40:49.133Z,0
2017-03-27T03:41:49.665Z,0
2017-03-27T03:42:50.198Z,0
2017-03-27T03:43:50.732Z,0
2017-03-27T03:44:51.414Z,0
2017-03-27T03:45:51.800Z,0
2017-03-27T03:46:52.328Z,0
2017-03-27T03:47:52.861Z,0
2017-03-27T03:48:53.396Z,0
2017-03-27T03:49:53.925Z,0
2017-03-27T03:50:54.457Z,0
2017-03-27T03:51:54.997Z,0
2017-03-27T03:52:55.548Z,0
2017-03-27T03:53:56.055Z,0
2017-03-27T03:54:56.587Z,0
2017-03-27T03:55:57.128Z,0
2017-03-27T03:56:57.649Z,0
2017-03-27T03:57:58.331Z,0
2017-03-27T03:58:58.711Z,0
2017-03-27T03:59:59.397Z,0
2017-03-27T04:00:59.781Z,0
2017-03-27T04:02:00.315Z,0
2017-03-27T04:03:00.848Z,0
2017-03-27T04:04:01.532Z,0
2017-03-27T04:05:01.931Z,0
2017-03-27T04:06:02.604Z,0
2017-03-27T04:07:02.993Z,0
2017-03-27T04:08:03.546Z,0
2017-03-27T04:09:04.090Z,0
2017-03-27T04:10:04.621Z,0
2017-03-27T04:11:05.158Z,0
2017-03-27T04:12:05.697Z,0
2017-03-27T04:13:06.222Z,0
2017-03-27T04:14:06.749Z,0
2017-03-27T04:15:07.287Z,0
2017-03-27T04:16:07.815Z,0
2017-03-27T04:17:08.350Z,0
2017-03-27T04:18:08.885Z,0
2017-03-27T04:19:09.417Z,0
2017-03-27T04:20:09.957Z,0
2017-03-27T04:21:10.486Z,0
2017-03-27T04:22:11.013Z,0
2017-03-27T04:23:11.694Z,0
2017-03-27T04:24:12.094Z,0
2017-03-27T04:25:12.621Z,0
2017-03-27T04:26:13.153Z,0
2017-03-27T04:27:13.684Z,0
2017-03-27T04:28:14.218Z,0
2017-03-27T04:29:14.752Z,0
2017-03-27T04:30:15.286Z,0
2017-03-27T04:31:15.817Z,4
2017-03-27T04:32:16.351Z,4
2017-03-27T04:33:16.887Z,0
2017-03-27T04:34:17.418Z,4
2017-03-27T04:35:17.948Z,4
2017-03-27T04:36:18.488Z,4
2017-03-27T04:37:19.018Z,8
2017-03-27T04:38:19.550Z,8
2017-03-27T04:39:20.081Z,8
2017-03-27T04:40:20.610Z,12
2017-03-27T04:41:21.149Z,16
2017-03-27T04:42:21.683Z,16
2017-03-27T04:43:22.216Z,20
2017-03-27T04:44:22.747Z,24
2017-03-27T04:45:23.279Z,28
2017-03-27T04:46:23.813Z,32
2017-03-27T04:47:24.346Z,40
2017-03-27T04:48:24.883Z,52
2017-03-27T04:49:25.425Z,60
2017-03-27T04:50:25.959Z,72
2017-03-27T04:51:26.497Z,84
2017-03-27T04:52:27.181Z,100
2017-03-27T04:53:27.717Z,120
2017-03-27T04:54:28.094Z,136
2017-03-27T04:55:28.640Z,160
2017-03-27T04:56:29.179Z,188
2017-03-27T04:57:29.695Z,216
2017-03-27T04:58:30.231Z,248
2017-03-27T04:59:30.760Z,284
2017-03-27T05:00:31.291Z,324
2017-03-27T05:01:31.827Z,368
2017-03-27T05:02:32.362Z,412
2017-03-27T05:03:33.035Z,464
2017-03-27T05:04:33.427Z,520
2017-03-27T05:05:33.957Z,584
2017-03-27T05:06:34.487Z,652
2017-03-27T05:07:35.024Z,716
2017-03-27T05:08:35.565Z,788
2017-03-27T05:09:36.087Z,868
2017-03-27T05:10:36.773Z,956
2017-03-27T05:11:37.151Z,1036
2017-03-27T05:12:37.694Z,1128
2017-03-27T05:13:38.223Z,1216
2017-03-27T05:14:38.746Z,1328
2017-03-27T05:15:39.284Z,1424
2017-03-27T05:16:39.818Z,1528
2017-03-27T05:17:40.496Z,1640
2017-03-27T05:18:40.895Z,1744
2017-03-27T05:19:41.420Z,1852
2017-03-27T05:20:41.951Z,1964
2017-03-27T05:21:42.493Z,2080
2017-03-27T05:22:43.013Z,2184
2017-03-27T05:23:43.544Z,2296
2017-03-27T05:24:44.076Z,2408
2017-03-27T05:25:44.619Z,2528
2017-03-27T05:26:45.145Z,2644
2017-03-27T05:27:45.684Z,2780
2017-03-27T05:28:46.375Z,2916
2017-03-27T05:29:46.755Z,3044
2017-03-27T05:30:47.289Z,3168
2017-03-27T05:31:47.975Z,3316
2017-03-27T05:32:48.364Z,3440
2017-03-27T05:33:48.900Z,3556
2017-03-27T05:34:49.430Z,3680
2017-03-27T05:35:49.965Z,3796
2017-03-27T05:36:50.499Z,3900
2017-03-27T05:37:51.032Z,4016
2017-03-27T05:38:51.715Z,4120
2017-03-27T05:39:52.097Z,4232
2017-03-27T05:40:52.784Z,4344
2017-03-27T05:41:53.165Z,4436
2017-03-27T05:42:53.697Z,4556
2017-03-27T05:43:54.376Z,4660
2017-03-27T05:44:54.762Z,4772
2017-03-27T05:45:55.292Z,4872
2017-03-27T05:46:55.833Z,4980
2017-03-27T05:47:56.359Z,5084
2017-03-27T05:48:56.901Z,5184
2017-03-27T05:49:57.426Z,5276
2017-03-27T05:50:58.107Z,5384
2017-03-27T05:51:58.641Z,5476
2017-03-27T05:52:59.172Z,5568
2017-03-27T05:53:59.552Z,5668
2017-03-27T05:55:00.085Z,5984
2017-03-27T05:56:00.619Z,7400
2017-03-27T05:57:01.148Z,8548
2017-03-27T05:58:01.693Z,8792
2017-03-27T05:59:02.366Z,8988
2017-03-27T06:00:02.756Z,9180
2017-03-27T06:01:03.287Z,9364
2017-03-27T06:02:03.817Z,9572
2017-03-27T06:03:04.353Z,9744
2017-03-27T06:04:04.881Z,9940
2017-03-27T06:05:05.424Z,10104
2017-03-27T06:06:05.946Z,10332
2017-03-27T06:07:06.479Z,10488
2017-03-27T06:08:07.022Z,10712
2017-03-27T06:09:07.595Z,10684
2017-03-27T06:10:08.079Z,10704
2017-03-27T06:11:08.617Z,11220
2017-03-27T06:12:09.154Z,10192
2017-03-27T06:13:09.692Z,8932
2017-03-27T06:14:10.227Z,9284
2017-03-27T06:15:10.766Z,9200
2017-03-27T06:16:11.299Z,8016
2017-03-27T06:17:11.834Z,7824
2017-03-27T06:18:12.361Z,7944
2017-03-27T06:19:12.896Z,8100
2017-03-27T06:20:13.428Z,7964
2017-03-27T06:21:13.957Z,7924
2017-03-27T06:22:14.496Z,7972
2017-03-27T06:23:15.023Z,8080
2017-03-27T06:24:15.559Z,8472
2017-03-27T06:25:16.092Z,8772
2017-03-27T06:26:16.625Z,8960
2017-03-27T06:27:17.158Z,9132
2017-03-27T06:28:17.842Z,9848
2017-03-27T06:29:18.400Z,10436
2017-03-27T06:30:18.762Z,9456
2017-03-27T06:31:19.297Z,9560
2017-03-27T06:32:19.829Z,9172
2017-03-27T06:33:20.362Z,9004
2017-03-27T06:34:20.892Z,12080
2017-03-27T06:35:21.433Z,23264
2017-03-27T06:36:21.961Z,38656
2017-03-27T06:37:22.504Z,48928
2017-03-27T06:38:23.172Z,47296
2017-03-27T06:39:23.560Z,39936
2017-03-27T06:40:24.089Z,36768
2017-03-27T06:41:24.619Z,41472
2017-03-27T06:42:25.157Z,46720
2017-03-27T06:43:25.688Z,48864
2017-03-27T06:44:26.221Z,53088
2017-03-27T06:45:26.750Z,57152
2017-03-27T06:46:27.285Z,59008
2017-03-27T06:47:27.817Z,66688
2017-03-27T06:48:28.354Z,69920
2017-03-27T06:49:28.887Z,77408
2017-03-27T06:50:29.579Z,73248
2017-03-27T06:51:29.959Z,90272
2017-03-27T06:52:30.491Z,170528
2017-03-27T06:53:31.027Z,234080
2017-03-27T06:54:31.573Z,262140
2017-03-27T06:55:32.097Z,262140
2017-03-27T06:56:32.630Z,262140
2017-03-27T06:57:33.169Z,239328
2017-03-27T06:58:33.703Z,115712
2017-03-27T06:59:34.233Z,0
2017-03-27T07:00:34.763Z,15776
2017-03-27T07:01:35.305Z,91616
2017-03-27T07:02:35.831Z,0
2017-03-27T07:03:36.369Z,67904
2017-03-27T07:04:36.897Z,262140
2017-03-27T07:05:37.431Z,262140
2017-03-27T07:06:37.959Z,249664
2017-03-27T07:07:38.489Z,168480
2017-03-27T07:08:39.027Z,152544
2017-03-27T07:09:39.704Z,100288
2017-03-27T07:10:40.090Z,47584
2017-03-27T07:11:40.619Z,120608
2017-03-27T07:12:41.150Z,126144
2017-03-27T07:13:41.690Z,90016
2017-03-27T07:14:42.369Z,38976
2017-03-27T07:15:42.900Z,16800
2017-03-27T07:16:43.287Z,63424
2017-03-27T07:17:43.818Z,62080
2017-03-27T07:18:44.351Z,25280
2017-03-27T07:19:44.883Z,33088
2017-03-27T07:20:45.420Z,32992
2017-03-27T07:21:45.944Z,40640
2017-03-27T07:22:46.480Z,64352
2017-03-27T07:23:47.165Z,34080
2017-03-27T07:24:47.546Z,85632
2017-03-27T07:25:48.075Z,48256
2017-03-27T07:26:48.612Z,50688
2017-03-27T07:27:49.152Z,48704
2017-03-27T07:28:49.674Z,49216
2017-03-27T07:29:50.212Z,49984
2017-03-27T07:30:50.741Z,50272
2017-03-27T07:31:51.273Z,50784
2017-03-27T07:32:51.808Z,51712
2017-03-27T07:33:52.339Z,52640
2017-03-27T07:34:52.874Z,52704
2017-03-27T07:35:53.558Z,52320
2017-03-27T07:36:53.953Z,51904
2017-03-27T07:37:54.491Z,52224
2017-03-27T07:38:55.023Z,52704
2017-03-27T07:39:55.559Z,53888
2017-03-27T07:40:56.093Z,55200
2017-03-27T07:41:56.623Z,56032
2017-03-27T07:42:57.154Z,57888
2017-03-27T07:43:57.695Z,58944
2017-03-27T07:44:58.223Z,59392
2017-03-27T07:45:58.753Z,58560
2017-03-27T07:46:59.286Z,57376
2017-03-27T07:47:59.815Z,55776
2017-03-27T07:49:00.355Z,55392
2017-03-27T07:50:00.885Z,55616
2017-03-27T07:51:01.413Z,57216
2017-03-27T07:52:01.940Z,59520
2017-03-27T07:53:02.475Z,61376
2017-03-27T07:54:03.009Z,62720
2017-03-27T07:55:03.544Z,63136
2017-03-27T07:56:04.072Z,62976
2017-03-27T07:57:04.611Z,62592
2017-03-27T07:58:05.138Z,62368
2017-03-27T07:59:05.670Z,62208
2017-03-27T08:00:06.354Z,61536
2017-03-27T08:01:06.735Z,61248
2017-03-27T08:02:07.271Z,60992
2017-03-27T08:03:07.811Z,60672
2017-03-27T08:04:08.343Z,61408
2017-03-27T08:05:08.871Z,62720
2017-03-27T08:06:09.550Z,62496
2017-03-27T08:07:10.102Z,62304
2017-03-27T08:08:10.468Z,62368
2017-03-27T08:09:10.994Z,62368
2017-03-27T08:10:11.533Z,63360
2017-03-27T08:11:12.060Z,64512
2017-03-27T08:12:12.591Z,65856
2017-03-27T08:13:13.126Z,66784
2017-03-27T08:14:13.658Z,67392
2017-03-27T08:15:14.194Z,67808
2017-03-27T08:16:14.754Z,67424
2017-03-27T08:17:15.257Z,65728
2017-03-27T08:18:15.791Z,64480
2017-03-27T08:19:16.334Z,63424
2017-03-27T08:20:16.878Z,63008
2017-03-27T08:21:17.405Z,64192
2017-03-27T08:22:17.940Z,66528
2017-03-27T08:23:18.620Z,69376
2017-03-27T08:24:19.153Z,72256
2017-03-27T08:25:19.561Z,73216
2017-03-27T08:26:20.073Z,73152
2017-03-27T08:27:20.602Z,71360
2017-03-27T08:28:21.135Z,69056
2017-03-27T08:29:21.682Z,68064
2017-03-27T08:30:22.198Z,68224
2017-03-27T08:31:22.732Z,69504
2017-03-27T08:32:23.261Z,70560
2017-03-27T08:33:23.795Z,73280
2017-03-27T08:34:24.326Z,74656
2017-03-27T08:35:24.862Z,75360
2017-03-27T08:36:25.397Z,74432
2017-03-27T08:37:25.927Z,73632
2017-03-27T08:38:26.474Z,72192
2017-03-27T08:39:26.995Z,72288
2017-03-27T08:40:27.528Z,74240
2017-03-27T08:41:28.063Z,76448
2017-03-27T08:42:28.597Z,78368
2017-03-27T08:43:29.127Z,78656
2017-03-27T08:44:29.656Z,78112
2017-03-27T08:45:30.188Z,77792
2017-03-27T08:46:31.168Z,77280
2017-03-27T08:47:31.252Z,76000
2017-03-27T08:48:31.783Z,76640
2017-03-27T08:49:32.312Z,76960
2017-03-27T08:50:32.837Z,77568
2017-03-27T08:51:33.377Z,78080
2017-03-27T08:52:33.909Z,77888
2017-03-27T08:53:34.439Z,76896
2017-03-27T08:54:34.976Z,77056
2017-03-27T08:55:35.503Z,78752
2017-03-27T08:56:36.036Z,80992
2017-03-27T08:57:36.567Z,83584
2017-03-27T08:58:37.103Z,85088
2017-03-27T08:59:37.637Z,86016
2017-03-27T09:00:38.180Z,86880
2017-03-27T09:01:38.713Z,86848
2017-03-27T09:02:39.246Z,87136
2017-03-27T09:03:39.785Z,86432
2017-03-27T09:04:40.321Z,85152
2017-03-27T09:05:40.848Z,84416
2017-03-27T09:06:41.387Z,83456
2017-03-27T09:07:41.912Z,83616
2017-03-27T09:08:42.442Z,85152
2017-03-27T09:09:42.975Z,86752
2017-03-27T09:10:43.520Z,88928
2017-03-27T09:11:44.040Z,90944
2017-03-27T09:12:44.570Z,89696
2017-03-27T09:13:45.105Z,86688
2017-03-27T09:14:45.645Z,84384
2017-03-27T09:15:46.468Z,83424
2017-03-27T09:16:46.707Z,85056
2017-03-27T09:17:47.236Z,87968
2017-03-27T09:18:47.772Z,91744
2017-03-27T09:19:48.302Z,94048
2017-03-27T09:20:48.835Z,93856
2017-03-27T09:21:49.387Z,92608
2017-03-27T09:22:49.905Z,91136
2017-03-27T09:23:50.435Z,90784
2017-03-27T09:24:50.978Z,91392
2017-03-27T09:25:51.505Z,92480
2017-03-27T09:26:52.043Z,93792
2017-03-27T09:27:52.579Z,94848
2017-03-27T09:28:53.100Z,95168
2017-03-27T09:29:53.638Z,94144
2017-03-27T09:30:54.181Z,93152
2017-03-27T09:31:54.707Z,92320
2017-03-27T09:32:55.235Z,92224
2017-03-27T09:33:55.770Z,92512
2017-03-27T09:34:56.296Z,92128
2017-03-27T09:35:56.831Z,92672
2017-03-27T09:36:57.379Z,94048
2017-03-27T09:37:57.895Z,95328
2017-03-27T09:38:58.427Z,96704
2017-03-27T09:39:58.965Z,98112
2017-03-27T09:40:59.497Z,99808
2017-03-27T09:42:00.054Z,100320
2017-03-27T09:43:00.566Z,100576
2017-03-27T09:44:01.104Z,99296
2017-03-27T09:45:01.636Z,96000
2017-03-27T09:46:02.172Z,94528
2017-03-27T09:47:02.700Z,93024
2017-03-27T09:48:03.239Z,92576
2017-03-27T09:49:03.765Z,91648
2017-03-27T09:50:04.297Z,92448
2017-03-27T09:51:04.829Z,93216
2017-03-27T09:52:05.366Z,93408
2017-03-27T09:53:05.897Z,93216
2017-03-27T09:54:06.432Z,92640
2017-03-27T09:55:06.965Z,91872
2017-03-27T09:56:07.495Z,92416
2017-03-27T09:57:08.034Z,92928
2017-03-27T09:58:08.563Z,92128
2017-03-27T09:59:09.095Z,90400
2017-03-27T10:00:09.643Z,87296
2017-03-27T10:01:10.152Z,84320
2017-03-27T10:02:10.686Z,82272
2017-03-27T10:03:11.214Z,81792
2017-03-27T10:04:11.749Z,84416
2017-03-27T10:05:12.279Z,88736
2017-03-27T10:06:12.821Z,92384
2017-03-27T10:07:13.352Z,94464
2017-03-27T10:08:13.882Z,93088
2017-03-27T10:09:14.415Z,91232
2017-03-27T10:10:14.939Z,88576
2017-03-27T10:11:15.476Z,86176
2017-03-27T10:12:16.156Z,86336
2017-03-27T10:13:16.543Z,88992
2017-03-27T10:14:17.071Z,93088
2017-03-27T10:15:17.604Z,95968
2017-03-27T10:16:18.143Z,97632
2017-03-27T10:17:18.669Z,97088
2017-03-27T10:18:19.208Z,95040
2017-03-27T10:19:19.889Z,94528
2017-03-27T10:20:20.270Z,95936
2017-03-27T10:21:20.816Z,97568
2017-03-27T10:22:21.364Z,100672
2017-03-27T10:23:21.869Z,101280
2017-03-27T10:24:22.408Z,99488
2017-03-27T10:25:22.939Z,98016
2017-03-27T10:26:23.474Z,97056
2017-03-27T10:27:24.006Z,97024
2017-03-27T10:28:24.538Z,99488
2017-03-27T10:29:25.070Z,103232
2017-03-27T10:30:25.605Z,106240
2017-03-27T10:31:26.143Z,106144
2017-03-27T10:32:26.668Z,108128
2017-03-27T10:33:27.199Z,108544
2017-03-27T10:34:27.730Z,106048
2017-03-27T10:35:28.261Z,104448
2017-03-27T10:36:28.793Z,102912
2017-03-27T10:37:29.321Z,101056
2017-03-27T10:38:29.860Z,99680
2017-03-27T10:39:30.534Z,100000
2017-03-27T10:40:30.919Z,100448
2017-03-27T10:41:31.457Z,102784
2017-03-27T10:42:31.983Z,105920
2017-03-27T10:43:32.514Z,106336
2017-03-27T10:44:33.044Z,103968
2017-03-27T10:45:33.580Z,101120
2017-03-27T10:46:34.116Z,98976
2017-03-27T10:47:34.641Z,97568
2017-03-27T10:48:35.177Z,98496
2017-03-27T10:49:35.731Z,100512
2017-03-27T10:50:36.260Z,103392
2017-03-27T10:51:36.769Z,102560
2017-03-27T10:52:37.301Z,99584
2017-03-27T10:53:37.855Z,94976
2017-03-27T10:54:38.364Z,91648
2017-03-27T10:55:38.903Z,92640
2017-03-27T10:56:39.429Z,96448
2017-03-27T10:57:39.959Z,100096
2017-03-27T10:58:40.503Z,100704
2017-03-27T10:59:41.031Z,98528
2017-03-27T11:00:41.558Z,96864
2017-03-27T11:01:42.090Z,95392
2017-03-27T11:02:42.626Z,95136
2017-03-27T11:03:43.163Z,95104
2017-03-27T11:04:43.694Z,95744
2017-03-27T11:05:44.235Z,97792
2017-03-27T11:06:44.768Z,101664
2017-03-27T11:07:45.302Z,104640
2017-03-27T11:08:45.833Z,105760
2017-03-27T11:09:46.369Z,103360
2017-03-27T11:10:46.920Z,100800
2017-03-27T11:11:47.429Z,98688
2017-03-27T11:12:47.964Z,98336
2017-03-27T11:13:48.496Z,99552
2017-03-27T11:14:49.032Z,102368
2017-03-27T11:15:49.569Z,105952
2017-03-27T11:16:50.091Z,107168
2017-03-27T11:17:50.623Z,107072
2017-03-27T11:18:51.155Z,106240
2017-03-27T11:19:51.684Z,105280
2017-03-27T11:20:52.217Z,104544
2017-03-27T11:21:52.746Z,106400
2017-03-27T11:22:53.279Z,109152
2017-03-27T11:23:53.812Z,111840
2017-03-27T11:24:54.353Z,113504
2017-03-27T11:25:54.887Z,115328
2017-03-27T11:26:55.409Z,113728
2017-03-27T11:27:55.954Z,112800
2017-03-27T11:28:56.475Z,113184
2017-03-27T11:29:57.155Z,114176
2017-03-27T11:30:57.538Z,116800
2017-03-27T11:31:58.073Z,119008
2017-03-27T11:32:58.601Z,119072
2017-03-27T11:33:59.128Z,116384
2017-03-27T11:34:59.662Z,114272
2017-03-27T11:36:00.197Z,114080
2017-03-27T11:37:00.729Z,113344
2017-03-27T11:38:01.260Z,113824
2017-03-27T11:39:01.800Z,114496
2017-03-27T11:40:02.322Z,114464
2017-03-27T11:41:02.859Z,113088
2017-03-27T11:42:03.387Z,110560
2017-03-27T11:43:03.922Z,108608
2017-03-27T11:44:04.601Z,107776
2017-03-27T11:45:04.986Z,107840
2017-03-27T11:46:05.519Z,107840
2017-03-27T11:47:06.062Z,107488
2017-03-27T11:48:06.603Z,105696
2017-03-27T11:49:07.138Z,103264
2017-03-27T11:50:07.670Z,100896
2017-03-27T11:51:08.201Z,100736
2017-03-27T11:52:08.761Z,103872
2017-03-27T11:53:09.265Z,108928
2017-03-27T11:54:09.797Z,113312
2017-03-27T11:55:10.337Z,115968
2017-03-27T11:56:10.865Z,115840
2017-03-27T11:57:11.394Z,114336
2017-03-27T11:58:11.928Z,112064
2017-03-27T11:59:12.465Z,108128
2017-03-27T12:00:12.992Z,104064
2017-03-27T12:01:13.525Z,102016
2017-03-27T12:02:14.054Z,103104
2017-03-27T12:03:14.590Z,105952
2017-03-27T12:04:15.145Z,109280
2017-03-27T12:05:15.674Z,112032
2017-03-27T12:06:16.188Z,112064
2017-03-27T12:07:16.719Z,108192
2017-03-27T12:08:17.252Z,105408
2017-03-27T12:09:17.783Z,106176
2017-03-27T12:10:18.312Z,110272
2017-03-27T12:11:18.848Z,113312
2017-03-27T12:12:19.378Z,115744
2017-03-27T12:13:19.906Z,115264
2017-03-27T12:14:20.440Z,110304
2017-03-27T12:15:20.974Z,104640
2017-03-27T12:16:21.507Z,100544
2017-03-27T12:17:22.038Z,100608
2017-03-27T12:18:22.577Z,103872
2017-03-27T12:19:23.107Z,108704
2017-03-27T12:20:23.643Z,112480
2017-03-27T12:21:24.167Z,110880
2017-03-27T12:22:24.706Z,107712
2017-03-27T12:23:25.236Z,104000
2017-03-27T12:24:25.779Z,103520
2017-03-27T12:25:26.294Z,106688
2017-03-27T12:26:26.822Z,109632
2017-03-27T12:27:27.359Z,109216
2017-03-27T12:28:27.896Z,105824
2017-03-27T12:29:28.432Z,101120
2017-03-27T12:30:29.123Z,97664
2017-03-27T12:31:29.506Z,97888
2017-03-27T12:32:30.041Z,99360
2017-03-27T12:33:30.574Z,101568
2017-03-27T12:34:31.106Z,93856
2017-03-27T12:35:31.638Z,98880
2017-03-27T12:36:32.188Z,97600
2017-03-27T12:37:32.701Z,98880
2017-03-27T12:38:33.236Z,102464
2017-03-27T12:39:33.768Z,104704
2017-03-27T12:40:34.300Z,103552
2017-03-27T12:41:34.833Z,100256
2017-03-27T12:42:35.365Z,96896
2017-03-27T12:43:35.891Z,95296
2017-03-27T12:44:36.443Z,97600
2017-03-27T12:45:36.952Z,99264
2017-03-27T12:46:37.636Z,100000
2017-03-27T12:47:38.164Z,100064
2017-03-27T12:48:38.559Z,99200
2017-03-27T12:49:39.084Z,100416
2017-03-27T12:50:39.619Z,104864
2017-03-27T12:51:40.151Z,110272
2017-03-27T12:52:40.682Z,110848
2017-03-27T12:53:41.216Z,106592
2017-03-27T12:54:41.763Z,101312
2017-03-27T12:55:42.284Z,99072
2017-03-27T12:56:42.812Z,98080
2017-03-27T12:57:43.344Z,98656
2017-03-27T12:58:43.877Z,99200
2017-03-27T12:59:44.406Z,96256
2017-03-27T13:00:44.937Z,88736
2017-03-27T13:01:45.508Z,82816
2017-03-27T13:02:46.007Z,82528
2017-03-27T13:03:46.537Z,87968
2017-03-27T13:04:47.068Z,95968
2017-03-27T13:05:47.596Z,99584
2017-03-27T13:06:48.123Z,95168
2017-03-27T13:07:48.659Z,86496
2017-03-27T13:08:49.200Z,80576
2017-03-27T13:09:49.732Z,80544
2017-03-27T13:10:50.269Z,84704
2017-03-27T13:11:50.822Z,90624
2017-03-27T13:12:51.341Z,94656
2017-03-27T13:13:52.020Z,94464
2017-03-27T13:14:52.412Z,91200
2017-03-27T13:15:52.938Z,88672
2017-03-27T13:16:53.470Z,85856
2017-03-27T13:17:54.006Z,86720
2017-03-27T13:18:54.529Z,91776
2017-03-27T13:19:55.062Z,96960
2017-03-27T13:20:55.604Z,99392
2017-03-27T13:21:56.128Z,98336
2017-03-27T13:22:56.668Z,95776
2017-03-27T13:23:57.197Z,94432
2017-03-27T13:24:57.726Z,94848
2017-03-27T13:25:58.264Z,94560
2017-03-27T13:26:58.827Z,94912
2017-03-27T13:27:59.328Z,96224
2017-03-27T13:28:59.861Z,98048
2017-03-27T13:30:00.392Z,97344
2017-03-27T13:31:00.920Z,95104
2017-03-27T13:32:01.450Z,91808
2017-03-27T13:33:01.991Z,89056
2017-03-27T13:34:02.519Z,88512
2017-03-27T13:35:03.048Z,91712
2017-03-27T13:36:03.586Z,95808
2017-03-27T13:37:04.113Z,98016